No particular awareness of the weather is required.    There are no Weather-warnings


Meteo18 Weather Cam more information Meteo18 Weather Cam


Thunder radar more information blitzortung!


Rain radar more information rain snow radar


Visit our other weather sites:

Template documentation
and downloads

And another site



Weather Underground History page Text

Daily Summary for February 10, 2016 Units:  Metric    English   Both
« Previous Day
Next Day »
Daily Weekly Monthly Yearly Custom
  High: Low: Average:
Temperature: 7.1 °C 0.1 °C 3.5 °C
Dew Point: 2.6 °C -1.1 °C 0.9 °C
Humidity: 94 % 68 % 84 %
Wind Speed: 16.1 km/h 0.0 km/h 3.5 km/h
Wind Gust: 22.5 km/h - -
Wind:- - SW
Pressure: 1007.7 hPa 1000.2 hPa -
Precipitation: 0.0 mm    
Historical Graphs
 
 
Tabular Data for February 10, 2016
Time Temperature Dew Point Pressure Wind Wind Speed Wind Gust Humidity Rainfall Rate (Hourly)
00:07 2.9 °C 1.0 °C 1000.2 hPa SW 8.0 km/h 17.7 km/h 87 % 0.0 mm
00:12 2.8 °C 0.9 °C 1000.6 hPa SW 8.0 km/h 12.9 km/h 87 % 0.0 mm
00:17 2.7 °C 0.9 °C 1000.6 hPa Calm   12.9 km/h 88 % 0.0 mm
00:22 2.7 °C 1.1 °C 1000.6 hPa SW 3.2 km/h 11.3 km/h 89 % 0.0 mm
00:27 2.7 °C 1.1 °C 1000.6 hPa SW 8.0 km/h 11.3 km/h 89 % 0.0 mm
00:32 2.7 °C 1.1 °C 1000.6 hPa SE 4.8 km/h 11.3 km/h 89 % 0.0 mm
00:37 2.7 °C 1.1 °C 1000.6 hPa WSW 4.8 km/h 12.9 km/h 89 % 0.0 mm
00:42 2.6 °C 1.0 °C 1000.6 hPa Calm   12.9 km/h 89 % 0.0 mm
00:47 2.5 °C 0.9 °C 1000.6 hPa SW 3.2 km/h 11.3 km/h 89 % 0.0 mm
00:52 2.4 °C 0.8 °C 1000.9 hPa SW 3.2 km/h 11.3 km/h 89 % 0.0 mm
00:57 2.4 °C 0.9 °C 1000.9 hPa Calm   11.3 km/h 90 % 0.0 mm
01:02 2.4 °C 0.9 °C 1001.2 hPa SSW 6.4 km/h 11.3 km/h 90 % 0.0 mm
01:07 2.4 °C 0.9 °C 1001.2 hPa South 3.2 km/h 9.7 km/h 90 % 0.0 mm
01:12 2.5 °C 1.0 °C 1001.2 hPa South 4.8 km/h 9.7 km/h 90 % 0.0 mm
01:22 2.6 °C 1.1 °C 1001.6 hPa WSW 6.4 km/h 11.3 km/h 90 % 0.0 mm
01:27 2.6 °C 1.0 °C 1001.6 hPa WSW 3.2 km/h 11.3 km/h 89 % 0.0 mm
01:32 2.6 °C 1.0 °C 1001.6 hPa SW 12.9 km/h 12.9 km/h 89 % 0.0 mm
01:37 2.6 °C 1.0 °C 1001.6 hPa SSW 8.0 km/h 12.9 km/h 89 % 0.0 mm
01:42 2.6 °C 1.0 °C 1001.6 hPa SW 3.2 km/h 16.1 km/h 89 % 0.0 mm
01:47 2.6 °C 1.0 °C 1001.6 hPa South 4.8 km/h 16.1 km/h 89 % 0.0 mm
01:52 2.5 °C 0.9 °C 1001.2 hPa SW 1.6 km/h 20.9 km/h 89 % 0.0 mm
02:02 2.4 °C 0.8 °C 1001.6 hPa SW 3.2 km/h 20.9 km/h 89 % 0.0 mm
02:07 2.4 °C 0.8 °C 1001.6 hPa SSW 6.4 km/h 20.9 km/h 89 % 0.0 mm
02:12 2.4 °C 0.8 °C 1001.6 hPa WSW 4.8 km/h 20.9 km/h 89 % 0.0 mm
02:17 2.3 °C 0.7 °C 1001.6 hPa SSW 8.0 km/h 20.9 km/h 89 % 0.0 mm
02:22 2.3 °C 0.7 °C 1001.6 hPa South 6.4 km/h 20.9 km/h 89 % 0.0 mm
02:27 2.2 °C 0.7 °C 1001.9 hPa WSW 4.8 km/h 17.7 km/h 90 % 0.0 mm
02:32 2.2 °C 0.7 °C 1001.6 hPa SW 4.8 km/h 17.7 km/h 90 % 0.0 mm
02:37 2.2 °C 0.7 °C 1001.9 hPa WSW 4.8 km/h 17.7 km/h 90 % 0.0 mm
02:42 2.1 °C 0.6 °C 1001.9 hPa SW 6.4 km/h 11.3 km/h 90 % 0.0 mm
02:47 2.2 °C 0.7 °C 1001.6 hPa SW 3.2 km/h 11.3 km/h 90 % 0.0 mm
02:52 2.1 °C 0.6 °C 1001.6 hPa West 3.2 km/h 14.5 km/h 90 % 0.0 mm
02:57 2.1 °C 0.6 °C 1001.6 hPa WSW 1.6 km/h 14.5 km/h 90 % 0.0 mm
03:02 2.1 °C 0.6 °C 1001.6 hPa SW 4.8 km/h 22.5 km/h 90 % 0.0 mm
03:12 2.1 °C 0.6 °C 1001.6 hPa SW 3.2 km/h 22.5 km/h 90 % 0.0 mm
03:17 2.1 °C 0.8 °C 1001.6 hPa SW 6.4 km/h 17.7 km/h 91 % 0.0 mm
03:22 2.1 °C 0.8 °C 1001.9 hPa WSW 6.4 km/h 20.9 km/h 91 % 0.0 mm
03:27 2.2 °C 0.7 °C 1001.6 hPa WSW 4.8 km/h 20.9 km/h 90 % 0.0 mm
03:37 2.3 °C 0.8 °C 1001.9 hPa WSW 6.4 km/h 19.3 km/h 90 % 0.0 mm
03:47 2.4 °C 0.9 °C 1001.9 hPa SSW 3.2 km/h 16.1 km/h 90 % 0.0 mm
03:52 2.4 °C 0.9 °C 1001.9 hPa WSW 1.6 km/h 16.1 km/h 90 % 0.0 mm
03:57 2.5 °C 0.9 °C 1001.9 hPa SW 14.5 km/h 16.1 km/h 89 % 0.0 mm
04:02 2.6 °C 1.0 °C 1001.9 hPa SSW 4.8 km/h 16.1 km/h 89 % 0.0 mm
04:07 2.6 °C 1.0 °C 1001.9 hPa SSW 3.2 km/h 16.1 km/h 89 % 0.0 mm
04:12 2.7 °C 1.1 °C 1001.9 hPa SW 3.2 km/h 16.1 km/h 89 % 0.0 mm
04:17 2.7 °C 1.1 °C 1002.3 hPa SW 3.2 km/h 16.1 km/h 89 % 0.0 mm
04:22 2.7 °C 1.1 °C 1002.3 hPa WSW 3.2 km/h 16.1 km/h 89 % 0.0 mm
04:27 2.7 °C 1.1 °C 1002.3 hPa SW 8.0 km/h 16.1 km/h 89 % 0.0 mm
04:32 2.7 °C 1.1 °C 1002.3 hPa SW 4.8 km/h 12.9 km/h 89 % 0.0 mm
04:37 2.7 °C 1.2 °C 1002.6 hPa SW 3.2 km/h 12.9 km/h 90 % 0.0 mm
04:42 2.7 °C 1.1 °C 1002.6 hPa SW 11.3 km/h 12.9 km/h 89 % 0.0 mm
04:47 2.8 °C 1.2 °C 1002.6 hPa WSW 4.8 km/h 11.3 km/h 89 % 0.0 mm
04:52 2.8 °C 1.2 °C 1002.6 hPa South 4.8 km/h 12.9 km/h 89 % 0.0 mm
04:57 2.8 °C 1.2 °C 1002.6 hPa SW 3.2 km/h 12.9 km/h 89 % 0.0 mm
05:02 2.9 °C 1.3 °C 1002.6 hPa SW 1.6 km/h 12.9 km/h 89 % 0.0 mm
05:07 2.9 °C 1.3 °C 1002.6 hPa SW 3.2 km/h 12.9 km/h 89 % 0.0 mm
05:12 2.9 °C 1.3 °C 1002.6 hPa SW 3.2 km/h 12.9 km/h 89 % 0.0 mm
05:17 2.9 °C 1.3 °C 1002.9 hPa SW 8.0 km/h 12.9 km/h 89 % 0.0 mm
05:22 2.8 °C 1.2 °C 1002.9 hPa SW 3.2 km/h 11.3 km/h 89 % 0.0 mm
05:27 2.8 °C 1.2 °C 1002.9 hPa SW 3.2 km/h 8.0 km/h 89 % 0.0 mm
05:32 2.8 °C 1.2 °C 1002.9 hPa SW 3.2 km/h 8.0 km/h 89 % 0.0 mm
05:37 2.9 °C 1.1 °C 1002.9 hPa South 1.6 km/h 11.3 km/h 88 % 0.0 mm
05:42 2.9 °C 1.1 °C 1002.9 hPa WSW 6.4 km/h 11.3 km/h 88 % 0.0 mm
05:47 2.9 °C 1.1 °C 1002.9 hPa SW 4.8 km/h 11.3 km/h 88 % 0.0 mm
05:52 2.9 °C 1.1 °C 1002.9 hPa SW 11.3 km/h 11.3 km/h 88 % 0.0 mm
06:02 3.1 °C 1.1 °C 1002.9 hPa WSW 3.2 km/h 17.7 km/h 87 % 0.0 mm
06:07 3.1 °C 1.1 °C 1002.9 hPa Calm   17.7 km/h 87 % 0.0 mm
06:12 3.1 °C 1.3 °C 1002.9 hPa SSW 3.2 km/h 9.7 km/h 88 % 0.0 mm
06:17 3.1 °C 1.3 °C 1002.9 hPa West 3.2 km/h 9.7 km/h 88 % 0.0 mm
06:22 3.0 °C 1.4 °C 1003.3 hPa SW 4.8 km/h 14.5 km/h 89 % 0.0 mm
06:27 2.9 °C 1.3 °C 1003.3 hPa WSW 4.8 km/h 14.5 km/h 89 % 0.0 mm
06:32 2.8 °C 1.2 °C 1003.3 hPa SW 4.8 km/h 14.5 km/h 89 % 0.0 mm
06:42 2.7 °C 1.1 °C 1003.3 hPa SW 9.7 km/h 9.7 km/h 89 % 0.0 mm
06:47 2.7 °C 1.1 °C 1003.3 hPa SW 4.8 km/h 20.9 km/h 89 % 0.0 mm
06:52 2.6 °C 1.0 °C 1003.3 hPa SW 8.0 km/h 20.9 km/h 89 % 0.0 mm
06:57 2.6 °C 1.0 °C 1003.3 hPa WSW 4.8 km/h 14.5 km/h 89 % 0.0 mm
07:02 2.6 °C 1.1 °C 1002.9 hPa WSW 4.8 km/h 14.5 km/h 90 % 0.0 mm
07:07 2.5 °C 1.0 °C 1003.3 hPa WSW 12.9 km/h 12.9 km/h 90 % 0.0 mm
07:12 2.4 °C 0.9 °C 1003.3 hPa SW 4.8 km/h 12.9 km/h 90 % 0.0 mm
07:17 2.4 °C 0.9 °C 1003.3 hPa South 3.2 km/h 14.5 km/h 90 % 0.0 mm
07:22 2.4 °C 0.9 °C 1003.6 hPa SSW 6.4 km/h 14.5 km/h 90 % 0.0 mm
07:32 2.4 °C 0.9 °C 1003.6 hPa SW 11.3 km/h 17.7 km/h 90 % 0.0 mm
07:37 2.3 °C 1.0 °C 1003.6 hPa East 3.2 km/h 14.5 km/h 91 % 0.0 mm
07:42 2.3 °C 1.0 °C 1003.6 hPa SW 4.8 km/h 14.5 km/h 91 % 0.0 mm
07:47 2.2 °C 0.9 °C 1003.9 hPa SW 8.0 km/h 14.5 km/h 91 % 0.0 mm
07:52 2.2 °C 0.9 °C 1003.9 hPa Calm   14.5 km/h 91 % 0.0 mm
07:57 2.2 °C 0.9 °C 1003.9 hPa SSE 1.6 km/h 12.9 km/h 91 % 0.0 mm
08:02 2.1 °C 0.8 °C 1003.9 hPa SW 6.4 km/h 12.9 km/h 91 % 0.0 mm
08:07 2.1 °C 0.9 °C 1003.9 hPa East 8.0 km/h 16.1 km/h 92 % 0.0 mm
08:12 2.1 °C 0.9 °C 1003.9 hPa South 6.4 km/h 16.1 km/h 92 % 0.0 mm
08:22 2.0 °C 0.8 °C 1003.9 hPa West 1.6 km/h 16.1 km/h 92 % 0.0 mm
08:32 2.0 °C 0.8 °C 1003.9 hPa SW 3.2 km/h 16.1 km/h 92 % 0.0 mm
08:37 1.9 °C 0.7 °C 1003.9 hPa South 16.1 km/h 16.1 km/h 92 % 0.0 mm
08:42 1.9 °C 0.7 °C 1003.9 hPa Calm   17.7 km/h 92 % 0.0 mm
08:47 1.9 °C 0.7 °C 1003.9 hPa WSW 4.8 km/h 17.7 km/h 92 % 0.0 mm
08:52 1.9 °C 0.7 °C 1003.9 hPa West 1.6 km/h 16.1 km/h 92 % 0.0 mm
08:57 1.9 °C 0.7 °C 1004.3 hPa WSW 3.2 km/h 11.3 km/h 92 % 0.0 mm
09:02 1.9 °C 0.7 °C 1004.3 hPa SW 6.4 km/h 14.5 km/h 92 % 0.0 mm
09:07 2.0 °C 0.7 °C 1004.3 hPa SW 3.2 km/h 14.5 km/h 91 % 0.0 mm
09:12 2.1 °C 0.8 °C 1004.3 hPa South 3.2 km/h 14.5 km/h 91 % 0.0 mm
09:17 2.1 °C 0.8 °C 1004.3 hPa WSW 3.2 km/h 12.9 km/h 91 % 0.0 mm
09:22 2.2 °C 0.9 °C 1004.3 hPa SW 6.4 km/h 12.9 km/h 91 % 0.0 mm
09:27 2.3 °C 1.0 °C 1003.9 hPa SW 9.7 km/h 12.9 km/h 91 % 0.0 mm
09:32 2.4 °C 0.9 °C 1003.9 hPa WSW 4.8 km/h 12.9 km/h 90 % 0.0 mm
09:37 2.5 °C 1.0 °C 1004.3 hPa SW 1.6 km/h 12.9 km/h 90 % 0.0 mm
09:42 2.7 °C 1.2 °C 1004.3 hPa SW 1.6 km/h 14.5 km/h 90 % 0.0 mm
09:47 2.9 °C 1.3 °C 1004.3 hPa SW 4.8 km/h 14.5 km/h 89 % 0.0 mm
09:52 3.1 °C 1.3 °C 1004.3 hPa SW 6.4 km/h 12.9 km/h 88 % 0.0 mm
09:57 3.2 °C 1.4 °C 1004.3 hPa South 1.6 km/h 12.9 km/h 88 % 0.0 mm
10:02 3.4 °C 1.4 °C 1004.3 hPa SW 1.6 km/h 12.9 km/h 87 % 0.0 mm
10:07 3.6 °C 1.5 °C 1004.3 hPa Calm   12.9 km/h 86 % 0.0 mm
10:12 3.8 °C 1.7 °C 1004.3 hPa WSW 3.2 km/h 12.9 km/h 86 % 0.0 mm
10:17 3.8 °C 1.7 °C 1004.3 hPa WSW 11.3 km/h 12.9 km/h 86 % 0.0 mm
10:22 3.9 °C 1.6 °C 1004.3 hPa SSW 4.8 km/h 14.5 km/h 85 % 0.0 mm
10:27 3.9 °C 1.4 °C 1004.3 hPa WSW 4.8 km/h 19.3 km/h 84 % 0.0 mm
10:32 3.9 °C 1.6 °C 1003.9 hPa WSW 6.4 km/h 19.3 km/h 85 % 0.0 mm
10:37 3.9 °C 1.6 °C 1003.9 hPa SW 8.0 km/h 19.3 km/h 85 % 0.0 mm
10:42 3.9 °C 1.6 °C 1004.3 hPa SW 3.2 km/h 17.7 km/h 85 % 0.0 mm
10:47 4.2 °C 1.9 °C 1004.3 hPa SE 3.2 km/h 16.1 km/h 85 % 0.0 mm
10:52 4.2 °C 1.7 °C 1004.3 hPa SW 4.8 km/h 16.1 km/h 84 % 0.0 mm
10:57 4.3 °C 1.8 °C 1004.3 hPa WSW 9.7 km/h 12.9 km/h 84 % 0.0 mm
11:02 4.3 °C 1.8 °C 1004.3 hPa SSW 4.8 km/h 14.5 km/h 84 % 0.0 mm
11:07 4.2 °C 1.6 °C 1004.3 hPa SW 9.7 km/h 14.5 km/h 83 % 0.0 mm
11:12 4.2 °C 1.6 °C 1004.3 hPa SW 3.2 km/h 16.1 km/h 83 % 0.0 mm
11:17 4.4 °C 1.8 °C 1004.3 hPa WSW 4.8 km/h 19.3 km/h 83 % 0.0 mm
11:22 4.7 °C 1.9 °C 1004.3 hPa WSW 3.2 km/h 19.3 km/h 82 % 0.0 mm
11:27 4.9 °C 2.1 °C 1004.3 hPa SSW 8.0 km/h 19.3 km/h 82 % 0.0 mm
11:32 5.1 °C 1.9 °C 1004.3 hPa SW 6.4 km/h 19.3 km/h 80 % 0.0 mm
11:37 5.3 °C 2.1 °C 1004.6 hPa SW 4.8 km/h 19.3 km/h 80 % 0.0 mm
11:42 5.4 °C 2.1 °C 1004.3 hPa SW 4.8 km/h 19.3 km/h 79 % 0.0 mm
11:47 5.2 °C 1.9 °C 1004.3 hPa SW 4.8 km/h 14.5 km/h 79 % 0.0 mm
11:52 5.1 °C 1.8 °C 1004.3 hPa SW 11.3 km/h 14.5 km/h 79 % 0.0 mm
12:02 5.0 °C 1.7 °C 1004.3 hPa SW 3.2 km/h 14.5 km/h 79 % 0.0 mm
12:07 5.3 °C 2.0 °C 1004.3 hPa SW 3.2 km/h 12.9 km/h 79 % 0.0 mm
12:17 6.2 °C 2.6 °C 1004.3 hPa West 8.0 km/h 9.7 km/h 78 % 0.0 mm
12:22 6.3 °C 2.4 °C 1003.9 hPa WNW 4.8 km/h 9.7 km/h 76 % 0.0 mm
12:27 6.0 °C 2.3 °C 1003.9 hPa SW 11.3 km/h 12.9 km/h 77 % 0.0 mm
12:32 5.7 °C 2.0 °C 1003.9 hPa West 3.2 km/h 12.9 km/h 77 % 0.0 mm
12:37 5.9 °C 2.0 °C 1003.9 hPa SW 1.6 km/h 16.1 km/h 76 % 0.0 mm
12:42 6.4 °C 2.5 °C 1003.9 hPa WSW 6.4 km/h 16.1 km/h 76 % 0.0 mm
12:47 6.7 °C 2.6 °C 1003.9 hPa SW 6.4 km/h 16.1 km/h 75 % 0.0 mm
12:52 6.8 °C 2.3 °C 1003.9 hPa WSW 4.8 km/h 12.9 km/h 73 % 0.0 mm
12:57 6.8 °C 2.5 °C 1003.9 hPa SW 8.0 km/h 14.5 km/h 74 % 0.0 mm
13:02 6.5 °C 2.0 °C 1003.9 hPa SW 4.8 km/h 14.5 km/h 73 % 0.0 mm
13:07 6.2 °C 1.5 °C 1003.9 hPa SSW 3.2 km/h 14.5 km/h 72 % 0.0 mm
13:12 5.9 °C 1.4 °C 1003.9 hPa SSW 6.4 km/h 14.5 km/h 73 % 0.0 mm
13:17 5.8 °C 1.1 °C 1003.9 hPa SW 6.4 km/h 12.9 km/h 72 % 0.0 mm
13:22 6.1 °C 1.6 °C 1003.9 hPa SW 3.2 km/h 11.3 km/h 73 % 0.0 mm
13:27 6.6 °C 2.3 °C 1003.6 hPa SW 4.8 km/h 12.9 km/h 74 % 0.0 mm
13:32 6.7 °C 2.0 °C 1003.6 hPa SW 14.5 km/h 14.5 km/h 72 % 0.0 mm
13:37 6.8 °C 2.3 °C 1003.6 hPa SSE 4.8 km/h 20.9 km/h 73 % 0.0 mm
13:42 6.7 °C 1.8 °C 1003.9 hPa SW 4.8 km/h 20.9 km/h 71 % 0.0 mm
13:47 6.6 °C 1.9 °C 1003.9 hPa SW 6.4 km/h 20.9 km/h 72 % 0.0 mm
13:52 6.8 °C 2.1 °C 1003.9 hPa SW 8.0 km/h 20.9 km/h 72 % 0.0 mm
13:57 6.7 °C 1.8 °C 1003.6 hPa SW 6.4 km/h 20.9 km/h 71 % 0.0 mm
14:02 6.7 °C 2.2 °C 1003.6 hPa SSE 3.2 km/h 20.9 km/h 73 % 0.0 mm
14:12 6.1 °C 1.8 °C 1003.9 hPa South 4.8 km/h 16.1 km/h 74 % 0.0 mm
14:17 5.9 °C 1.8 °C 1003.9 hPa West 4.8 km/h 17.7 km/h 75 % 0.0 mm
14:22 6.1 °C 1.6 °C 1003.9 hPa WSW 8.0 km/h 17.7 km/h 73 % 0.0 mm
14:27 6.1 °C 1.4 °C 1003.9 hPa SW 4.8 km/h 17.7 km/h 72 % 0.0 mm
14:32 6.2 °C 1.3 °C 1003.9 hPa WSW 9.7 km/h 14.5 km/h 71 % 0.0 mm
14:37 6.1 °C 1.4 °C 1003.9 hPa SW 4.8 km/h 14.5 km/h 72 % 0.0 mm
14:42 6.1 °C 1.2 °C 1003.9 hPa SE 1.6 km/h 12.9 km/h 71 % 0.0 mm
14:47 6.2 °C 1.7 °C 1003.9 hPa SW 6.4 km/h 12.9 km/h 73 % 0.0 mm
14:52 6.2 °C 1.9 °C 1003.9 hPa SW 3.2 km/h 9.7 km/h 74 % 0.0 mm
14:57 6.2 °C 2.1 °C 1003.9 hPa SW 3.2 km/h 9.7 km/h 75 % 0.0 mm
15:02 6.6 °C 2.3 °C 1003.9 hPa SSW 1.6 km/h 9.7 km/h 74 % 0.0 mm
15:07 6.8 °C 2.5 °C 1003.9 hPa SW 4.8 km/h 9.7 km/h 74 % 0.0 mm
15:12 7.1 °C 2.4 °C 1003.9 hPa WSW 3.2 km/h 9.7 km/h 72 % 0.0 mm
15:17 6.9 °C 2.0 °C 1003.9 hPa Calm   11.3 km/h 71 % 0.0 mm
15:22 6.7 °C 2.2 °C 1003.9 hPa Calm   12.9 km/h 73 % 0.0 mm
15:27 6.4 °C 1.9 °C 1003.9 hPa SW 1.6 km/h 12.9 km/h 73 % 0.0 mm
15:32 6.5 °C 2.2 °C 1003.9 hPa SW 1.6 km/h 12.9 km/h 74 % 0.0 mm
15:42 6.5 °C 1.6 °C 1003.9 hPa SSE 3.2 km/h 9.7 km/h 71 % 0.0 mm
15:47 6.7 °C 2.0 °C 1003.9 hPa SSE 1.6 km/h 9.7 km/h 72 % 0.0 mm
15:52 6.9 °C 2.4 °C 1003.9 hPa Calm   9.7 km/h 73 % 0.0 mm
15:57 7.0 °C 2.3 °C 1003.9 hPa Calm   6.4 km/h 72 % 0.0 mm
16:02 6.7 °C 2.0 °C 1003.9 hPa Calm   4.8 km/h 72 % 0.0 mm
16:07 6.4 °C 1.5 °C 1003.9 hPa SW 1.6 km/h 6.4 km/h 71 % 0.0 mm
16:12 6.2 °C 0.7 °C 1003.9 hPa WSW 1.6 km/h 8.0 km/h 68 % 0.0 mm
16:17 6.3 °C 0.8 °C 1003.9 hPa WSW 1.6 km/h 8.0 km/h 68 % 0.0 mm
16:22 6.6 °C 1.3 °C 1003.9 hPa SSW 3.2 km/h 11.3 km/h 69 % 0.0 mm
16:27 6.8 °C 1.3 °C 1003.9 hPa SW 6.4 km/h 11.3 km/h 68 % 0.0 mm
16:37 6.5 °C 1.0 °C 1003.9 hPa SSW 3.2 km/h 9.7 km/h 68 % 0.0 mm
16:42 6.6 °C 1.1 °C 1003.9 hPa WSW 1.6 km/h 9.7 km/h 68 % 0.0 mm
16:47 6.3 °C 1.2 °C 1003.9 hPa SW 1.6 km/h 8.0 km/h 70 % 0.0 mm
16:52 6.1 °C 1.0 °C 1003.9 hPa WSW 4.8 km/h 8.0 km/h 70 % 0.0 mm
16:57 6.0 °C 0.7 °C 1003.9 hPa East 4.8 km/h 8.0 km/h 69 % 0.0 mm
17:07 5.7 °C 0.3 °C 1003.9 hPa Calm   8.0 km/h 68 % 0.0 mm
17:12 5.8 °C 0.4 °C 1003.9 hPa Calm   6.4 km/h 68 % 0.0 mm
17:17 6.0 °C 0.5 °C 1004.3 hPa WSW 1.6 km/h 6.4 km/h 68 % 0.0 mm
17:22 6.1 °C 0.8 °C 1004.3 hPa Calm   6.4 km/h 69 % 0.0 mm
17:27 5.9 °C 0.6 °C 1004.3 hPa Calm   4.8 km/h 69 % 0.0 mm
17:32 5.6 °C 0.6 °C 1004.3 hPa Calm   3.2 km/h 70 % 0.0 mm
17:37 5.5 °C 0.7 °C 1004.3 hPa Calm   3.2 km/h 71 % 0.0 mm
17:42 5.3 °C 0.7 °C 1004.3 hPa Calm   3.2 km/h 72 % 0.0 mm
17:47 4.9 °C 0.5 °C 1004.6 hPa Calm   3.2 km/h 73 % 0.0 mm
17:52 4.5 °C 0.1 °C 1004.6 hPa Calm     73 % 0.0 mm
17:57 4.1 °C 0.1 °C 1004.6 hPa Calm     75 % 0.0 mm
18:02 3.7 °C 0.0 °C 1005.0 hPa Calm     77 % 0.0 mm
18:07 3.5 °C 0.0 °C 1005.0 hPa Calm     78 % 0.0 mm
18:17 3.0 °C -0.1 °C 1005.0 hPa Calm     80 % 0.0 mm
18:32 3.5 °C 0.0 °C 1005.0 hPa Calm   1.6 km/h 78 % 0.0 mm
18:37 3.7 °C 0.0 °C 1005.3 hPa Calm   1.6 km/h 77 % 0.0 mm
18:42 3.7 °C 0.2 °C 1005.3 hPa Calm   4.8 km/h 78 % 0.0 mm
18:47 3.7 °C 0.0 °C 1005.3 hPa Calm   4.8 km/h 77 % 0.0 mm
18:52 3.7 °C 0.2 °C 1005.6 hPa Calm   1.6 km/h 78 % 0.0 mm
18:57 3.6 °C 0.1 °C 1005.6 hPa Calm   1.6 km/h 78 % 0.0 mm
19:02 3.6 °C 0.1 °C 1005.6 hPa Calm   3.2 km/h 78 % 0.0 mm
19:07 3.4 °C 0.1 °C 1005.6 hPa Calm   3.2 km/h 79 % 0.0 mm
19:12 3.4 °C 0.1 °C 1005.6 hPa Calm   3.2 km/h 79 % 0.0 mm
19:17 3.4 °C 0.3 °C 1005.6 hPa Calm   3.2 km/h 80 % 0.0 mm
19:22 3.4 °C 0.3 °C 1005.6 hPa Calm   3.2 km/h 80 % 0.0 mm
19:27 3.3 °C 0.2 °C 1006.0 hPa Calm   3.2 km/h 80 % 0.0 mm
19:32 3.4 °C 0.1 °C 1006.0 hPa WSW 1.6 km/h 3.2 km/h 79 % 0.0 mm
19:37 3.1 °C 0.0 °C 1006.0 hPa Calm   4.8 km/h 80 % 0.0 mm
19:42 2.8 °C -0.1 °C 1006.0 hPa Calm   4.8 km/h 81 % 0.0 mm
19:47 2.4 °C -0.5 °C 1006.0 hPa Calm   4.8 km/h 81 % 0.0 mm
19:52 2.2 °C -0.4 °C 1006.0 hPa Calm     83 % 0.0 mm
19:57 1.8 °C -0.6 °C 1006.0 hPa Calm     84 % 0.0 mm
20:02 1.9 °C -0.4 °C 1006.0 hPa Calm     85 % 0.0 mm
20:07 2.1 °C -0.2 °C 1006.3 hPa Calm   1.6 km/h 85 % 0.0 mm
20:12 2.3 °C -0.1 °C 1006.3 hPa Calm   1.6 km/h 84 % 0.0 mm
20:17 2.4 °C 0.0 °C 1006.3 hPa Calm   1.6 km/h 84 % 0.0 mm
20:22 2.5 °C 0.1 °C 1006.3 hPa Calm   1.6 km/h 84 % 0.0 mm
20:27 2.6 °C 0.2 °C 1006.0 hPa Calm   3.2 km/h 84 % 0.0 mm
20:32 2.6 °C 0.2 °C 1006.0 hPa WSW 1.6 km/h 3.2 km/h 84 % 0.0 mm
20:37 2.6 °C 0.2 °C 1006.0 hPa WSW 1.6 km/h 3.2 km/h 84 % 0.0 mm
20:42 2.6 °C 0.3 °C 1006.3 hPa Calm   3.2 km/h 85 % 0.0 mm
20:47 2.6 °C 0.3 °C 1006.3 hPa Calm   3.2 km/h 85 % 0.0 mm
20:52 2.6 °C 0.3 °C 1006.3 hPa Calm   3.2 km/h 85 % 0.0 mm
20:57 2.4 °C 0.1 °C 1006.3 hPa Calm   3.2 km/h 85 % 0.0 mm
21:02 2.3 °C 0.0 °C 1006.7 hPa Calm   1.6 km/h 85 % 0.0 mm
21:07 2.1 °C 0.0 °C 1006.3 hPa Calm   1.6 km/h 86 % 0.0 mm
21:27 1.7 °C -0.2 °C 1006.7 hPa Calm   1.6 km/h 87 % 0.0 mm
21:32 1.4 °C -0.5 °C 1006.7 hPa Calm   1.6 km/h 87 % 0.0 mm
21:37 1.2 °C -0.7 °C 1006.7 hPa Calm     87 % 0.0 mm
21:47 1.1 °C -0.2 °C 1006.7 hPa Calm   4.8 km/h 91 % 0.0 mm
21:57 1.4 °C -0.1 °C 1007.0 hPa Calm   4.8 km/h 90 % 0.0 mm
22:02 1.3 °C -0.3 °C 1007.0 hPa Calm   3.2 km/h 89 % 0.0 mm
22:07 0.9 °C -0.7 °C 1007.0 hPa Calm   3.2 km/h 89 % 0.0 mm
22:12 0.6 °C -0.9 °C 1007.0 hPa Calm   1.6 km/h 90 % 0.0 mm
22:17 0.4 °C -1.0 °C 1007.0 hPa Calm   1.6 km/h 90 % 0.0 mm
22:22 0.2 °C -1.1 °C 1007.3 hPa Calm   1.6 km/h 91 % 0.0 mm
22:32 0.1 °C -1.0 °C 1007.3 hPa Calm   1.6 km/h 92 % 0.0 mm
22:37 0.1 °C -1.0 °C 1007.3 hPa Calm   1.6 km/h 92 % 0.0 mm
22:42 0.2 °C -0.8 °C 1007.3 hPa Calm   1.6 km/h 93 % 0.0 mm
22:47 0.2 °C -0.9 °C 1007.3 hPa Calm   1.6 km/h 92 % 0.0 mm
22:52 0.3 °C -0.7 °C 1007.3 hPa Calm   3.2 km/h 93 % 0.0 mm
22:57 0.6 °C -0.3 °C 1007.3 hPa SW 1.6 km/h 3.2 km/h 94 % 0.0 mm
23:02 0.8 °C -0.4 °C 1007.3 hPa Calm   3.2 km/h 92 % 0.0 mm
23:07 1.1 °C -0.1 °C 1007.3 hPa Calm   4.8 km/h 92 % 0.0 mm
23:12 1.0 °C -0.3 °C 1007.3 hPa Calm   4.8 km/h 91 % 0.0 mm
23:17 0.9 °C -0.3 °C 1007.3 hPa Calm   4.8 km/h 92 % 0.0 mm
23:22 0.9 °C -0.3 °C 1007.3 hPa Calm   1.6 km/h 92 % 0.0 mm
23:32 1.0 °C -0.2 °C 1007.3 hPa Calm   1.6 km/h 92 % 0.0 mm
23:37 0.9 °C -0.3 °C 1007.3 hPa SW 1.6 km/h 1.6 km/h 92 % 0.0 mm
23:42 1.1 °C -0.1 °C 1007.3 hPa Calm   3.2 km/h 92 % 0.0 mm
23:47 1.1 °C -0.1 °C 1007.3 hPa Calm   3.2 km/h 92 % 0.0 mm
23:52 1.1 °C -0.1 °C 1007.7 hPa Calm   3.2 km/h 92 % 0.0 mm
23:57 1.0 °C -0.2 °C 1007.7 hPa Calm   1.6 km/h 92 % 0.0 mm
Meteo18
Compliments of Weather Underground - 4 mb

Script developed by  Jim McMurry - jmcmurry@mwt.net Adapted for the template by  Wim van der Kuil - Leuven-Template.eu

You find our weather info also at:

European Weather Network

Weather Underground

Equipment we use:

Weather-station
Davis Vue

Weather-program
Meteohub

Weather-server
Raspberry PI 2 B+

Provider
1 and 1

Davis Vue

Meteohub

Raspberry PI 2 B+

1 and 1